首页
METAR-TAF:

METAR-TAF

机场 :

Rocky Mount-Wilson Regional Airport

Rocky Mount, 北卡罗来纳州, 美国

纬度: 35-51-18N, 经度: 077-53-35W, 海拔: 49米

当前天气观测

该预报发布于29分钟前的10:53 UTC
静风
温度 7°C
湿度 100%
气压 1015 hPa
能見度: 16.1公里
天空无云

METAR: KRWI 211053Z AUTO 00000KT 10SM CLR 07/07 A2998 RMK AO2 SLP152 T00670067

时间: 07:22 (11:22 UTC)

预报

该预报发布于5小时和45分钟前的05:37 UTC
预报有效从21日的 06点(UTC)到 22日的 06点(UTC)
风速6节,风向南转西南
能見度: 10公里
少量云层高于3000英尺
多云层高于5000英尺
短暂存在
从 21日的 12点(UTC)到 21日的 16点(UTC)
多云层高于2500英尺
从 21日的 2000点(UTC)
风速5节,风向西
能見度: 10公里
多云层高于3500英尺
附近有阵雨

TAF: KRWI 210537Z 2106/2206 21006KT P6SM FEW030 BKN050 TEMPO 2112/2116 BKN025 FM212000 28005KT P6SM VCSH BKN035

超过4000个机场的气象观测和天气预报(METAR&TAF报告)。

可查询的气象台以黄色和红色小点在地图上表示。

将鼠标移到小点上方,可查看气象台名称。

然后点击查看天气观测和预报。

如需切换地图:点击带黑十字的绿色按钮放大地图;点击带横线的绿色按钮缩小地图;或者点击绿色箭头查看邻近地区的地图。


METAR-TAF: